createdAt,value
2019-03-23T00:01:13.449Z,8.36
2019-03-23T00:03:41.760Z,8.33
2019-03-23T00:06:09.970Z,8.38
2019-03-23T00:08:38.194Z,8.37
2019-03-23T00:11:06.400Z,8.38
2019-03-23T00:13:34.633Z,8.43
2019-03-23T00:16:02.844Z,8.48
2019-03-23T00:18:31.069Z,8.51
2019-03-23T00:20:59.280Z,8.46
2019-03-23T00:23:27.508Z,8.45
2019-03-23T00:25:55.718Z,8.42
2019-03-23T00:28:23.960Z,8.45
2019-03-23T00:30:52.170Z,8.45
2019-03-23T00:33:20.383Z,8.49
2019-03-23T00:35:48.594Z,8.56
2019-03-23T00:38:16.819Z,8.50
2019-03-23T00:40:45.032Z,8.50
2019-03-23T00:43:13.262Z,8.46
2019-03-23T00:45:41.482Z,8.43
2019-03-23T00:48:09.688Z,8.48
2019-03-23T00:50:37.912Z,8.57
2019-03-23T00:53:06.130Z,8.59
2019-03-23T00:55:34.360Z,8.62
2019-03-23T00:58:03.031Z,8.62
2019-03-23T01:00:31.257Z,8.50
2019-03-23T01:02:59.472Z,8.41
2019-03-23T01:05:28.161Z,8.23
2019-03-23T01:07:56.376Z,8.11
2019-03-23T01:10:24.607Z,8.05
2019-03-23T01:12:53.708Z,7.92
2019-03-23T01:15:21.936Z,7.88
2019-03-23T01:17:50.146Z,7.76
2019-03-23T01:20:18.371Z,7.77
2019-03-23T01:22:46.580Z,7.77
2019-03-23T01:25:14.795Z,7.68
2019-03-23T01:27:43.027Z,7.63
2019-03-23T01:30:12.978Z,7.58
2019-03-23T01:32:41.203Z,7.56
2019-03-23T01:35:09.414Z,7.50
2019-03-23T01:37:37.645Z,7.47
2019-03-23T01:40:06.894Z,7.45
2019-03-23T01:42:35.119Z,7.42
2019-03-23T01:45:04.098Z,7.44
2019-03-23T01:47:32.319Z,7.48
2019-03-23T01:50:00.529Z,7.45
2019-03-23T01:52:28.749Z,7.45
2019-03-23T01:54:56.970Z,7.41
2019-03-23T01:57:25.198Z,7.41
2019-03-23T01:59:53.407Z,7.39
2019-03-23T02:02:21.638Z,7.40
2019-03-23T02:04:49.854Z,7.41
2019-03-23T02:07:18.084Z,7.36
2019-03-23T02:09:46.298Z,7.31
2019-03-23T02:12:14.522Z,7.29
2019-03-23T02:14:42.731Z,7.30
2019-03-23T02:17:10.954Z,7.30
2019-03-23T02:19:39.166Z,7.28
2019-03-23T02:22:07.392Z,7.25
2019-03-23T02:24:35.600Z,7.24
2019-03-23T02:27:03.828Z,7.20
2019-03-23T02:29:32.050Z,7.20
2019-03-23T02:32:00.273Z,7.22
2019-03-23T02:34:28.488Z,7.21
2019-03-23T02:36:56.706Z,7.17
2019-03-23T02:39:24.940Z,7.17
2019-03-23T02:41:53.144Z,7.17
2019-03-23T02:44:21.608Z,7.16
2019-03-23T02:46:49.837Z,7.12
2019-03-23T02:49:18.052Z,7.08
2019-03-23T02:51:46.283Z,7.05
2019-03-23T02:54:14.489Z,7.04
2019-03-23T02:56:42.719Z,7.01
2019-03-23T02:59:10.935Z,6.99
2019-03-23T03:01:39.141Z,7.04
2019-03-23T03:04:07.367Z,7.02
2019-03-23T03:06:35.583Z,7.02
2019-03-23T03:09:05.172Z,6.93
2019-03-23T03:11:33.387Z,6.93
2019-03-23T03:14:01.608Z,6.83
2019-03-23T03:16:29.827Z,6.83
2019-03-23T03:18:58.077Z,6.78
2019-03-23T03:21:26.343Z,6.78
2019-03-23T03:23:54.511Z,6.76
2019-03-23T03:26:22.739Z,6.75
2019-03-23T03:28:51.418Z,6.76
2019-03-23T03:31:19.659Z,6.76
2019-03-23T03:33:48.116Z,6.74
2019-03-23T03:36:16.345Z,6.70
2019-03-23T03:38:44.641Z,6.69
2019-03-23T03:41:12.873Z,6.66
2019-03-23T03:43:41.312Z,6.65
2019-03-23T03:46:09.522Z,6.64
2019-03-23T03:48:37.831Z,6.66
2019-03-23T03:51:06.056Z,6.67
2019-03-23T03:53:34.289Z,6.66
2019-03-23T03:56:02.543Z,6.65
2019-03-23T03:58:30.719Z,6.59
2019-03-23T04:00:58.942Z,6.56
2019-03-23T04:03:27.159Z,6.53
2019-03-23T04:05:55.401Z,6.53
2019-03-23T04:08:23.624Z,6.56
2019-03-23T04:10:51.825Z,6.52
2019-03-23T04:13:20.048Z,6.49
2019-03-23T04:15:49.406Z,6.45
2019-03-23T04:18:17.655Z,6.44
2019-03-23T04:20:45.867Z,6.44
2019-03-23T04:23:14.088Z,6.44
2019-03-23T04:25:42.771Z,6.46
2019-03-23T04:28:10.985Z,6.49
2019-03-23T04:30:39.215Z,6.44
2019-03-23T04:33:07.435Z,6.40
2019-03-23T04:35:35.645Z,6.42
2019-03-23T04:38:03.878Z,6.36
2019-03-23T04:40:32.079Z,6.42
2019-03-23T04:43:00.313Z,6.37
2019-03-23T04:45:29.843Z,6.36
2019-03-23T04:47:58.049Z,6.31
2019-03-23T04:50:26.279Z,6.29
2019-03-23T04:52:54.493Z,6.29
2019-03-23T04:55:22.730Z,6.34
2019-03-23T04:57:50.950Z,6.38
2019-03-23T05:00:19.808Z,6.37
2019-03-23T05:02:48.033Z,6.39
2019-03-23T05:05:16.246Z,6.39
2019-03-23T05:07:44.469Z,6.37
2019-03-23T05:10:12.691Z,6.37
2019-03-23T05:12:40.918Z,6.39
2019-03-23T05:15:09.129Z,6.39
2019-03-23T05:17:37.360Z,6.35
2019-03-23T05:20:07.808Z,6.35
2019-03-23T05:22:36.024Z,6.43
2019-03-23T05:25:05.177Z,6.41
2019-03-23T05:27:33.395Z,6.44
2019-03-23T05:30:01.697Z,6.44
2019-03-23T05:32:29.907Z,6.46
2019-03-23T05:34:58.142Z,6.45
2019-03-23T05:37:26.342Z,6.46
2019-03-23T05:39:54.562Z,6.51
2019-03-23T05:42:22.772Z,6.53
2019-03-23T05:44:50.997Z,6.55
2019-03-23T05:47:19.211Z,6.57
2019-03-23T05:49:47.921Z,6.55
2019-03-23T05:52:16.130Z,6.59
2019-03-23T05:54:44.361Z,6.58
2019-03-23T05:57:12.575Z,6.62
2019-03-23T05:59:40.787Z,6.62
2019-03-23T06:02:09.008Z,6.65
2019-03-23T06:04:37.219Z,6.65
2019-03-23T06:07:05.454Z,6.63
2019-03-23T06:09:33.660Z,6.66
2019-03-23T06:12:01.874Z,6.65
2019-03-23T06:14:30.099Z,6.65
2019-03-23T06:16:58.319Z,6.67
2019-03-23T06:19:26.556Z,6.67
2019-03-23T06:21:54.766Z,6.67
2019-03-23T06:24:22.978Z,6.67
2019-03-23T06:26:51.208Z,6.79
2019-03-23T06:29:19.420Z,6.79
2019-03-23T06:31:47.638Z,6.86
2019-03-23T06:34:15.855Z,6.92
2019-03-23T06:36:44.082Z,6.93
2019-03-23T06:39:12.293Z,6.95
2019-03-23T06:41:40.527Z,6.98
2019-03-23T06:44:08.738Z,7.02
2019-03-23T06:46:36.947Z,7.02
2019-03-23T06:49:05.441Z,7.02
2019-03-23T06:51:33.652Z,7.11
2019-03-23T06:54:01.863Z,7.11
2019-03-23T06:56:30.071Z,7.04
2019-03-23T06:58:58.756Z,7.13
2019-03-23T07:01:26.969Z,7.18
2019-03-23T07:03:55.198Z,7.20
2019-03-23T07:06:23.405Z,7.22
2019-03-23T07:08:51.624Z,7.26
2019-03-23T07:11:19.835Z,7.31
2019-03-23T07:13:49.253Z,7.43
2019-03-23T07:16:17.456Z,7.43
2019-03-23T07:18:45.676Z,7.50
2019-03-23T07:21:13.890Z,7.57
2019-03-23T07:23:42.113Z,7.69
2019-03-23T07:26:10.341Z,7.78
2019-03-23T07:28:38.560Z,7.79
2019-03-23T07:31:06.769Z,7.81
2019-03-23T07:33:34.989Z,7.86
2019-03-23T07:36:03.200Z,7.86
2019-03-23T07:38:31.424Z,7.85
2019-03-23T07:40:59.635Z,7.75
2019-03-23T07:43:29.331Z,7.75
2019-03-23T07:45:57.540Z,7.74
2019-03-23T07:48:25.777Z,7.79
2019-03-23T07:50:53.985Z,7.81
2019-03-23T07:53:22.196Z,7.76
2019-03-23T07:55:50.414Z,7.83
2019-03-23T07:58:18.619Z,7.85
2019-03-23T08:00:46.843Z,7.87
2019-03-23T08:03:15.303Z,7.87
2019-03-23T08:05:43.523Z,7.83
2019-03-23T08:08:11.730Z,7.90
2019-03-23T08:10:39.952Z,7.92
2019-03-23T08:13:08.198Z,7.94
2019-03-23T08:15:36.392Z,7.96
2019-03-23T08:18:04.603Z,7.98
2019-03-23T08:20:32.816Z,7.99
2019-03-23T08:23:01.044Z,8.00
2019-03-23T08:25:29.261Z,7.93
2019-03-23T08:27:57.486Z,7.93
2019-03-23T08:30:25.698Z,7.96
2019-03-23T08:32:53.929Z,7.96
2019-03-23T08:35:22.147Z,7.98
2019-03-23T08:37:50.355Z,7.99
2019-03-23T08:40:18.570Z,7.99
2019-03-23T08:42:46.783Z,7.99
2019-03-23T08:45:15.011Z,7.99
2019-03-23T08:47:43.220Z,7.98
2019-03-23T08:50:12.310Z,8.17
2019-03-23T08:52:40.515Z,8.17
2019-03-23T08:55:08.739Z,8.33
2019-03-23T08:57:36.952Z,8.44
2019-03-23T09:00:08.545Z,8.46
2019-03-23T09:02:36.752Z,8.46
2019-03-23T09:05:06.604Z,8.59
2019-03-23T09:07:34.819Z,8.74
2019-03-23T09:10:04.278Z,8.77
2019-03-23T09:12:32.484Z,8.76
2019-03-23T09:15:00.699Z,8.76
2019-03-23T09:17:28.916Z,8.87
2019-03-23T09:19:57.138Z,8.99
2019-03-23T09:22:25.350Z,9.12
2019-03-23T09:24:56.906Z,9.14
2019-03-23T09:27:23.504Z,9.12
2019-03-23T09:29:51.728Z,9.18
2019-03-23T09:32:19.943Z,9.30
2019-03-23T09:34:48.163Z,9.36
2019-03-23T09:37:16.377Z,9.26
2019-03-23T09:39:44.595Z,9.24
2019-03-23T09:42:12.804Z,9.28
2019-03-23T09:44:41.026Z,9.37
2019-03-23T09:47:09.237Z,9.57
2019-03-23T09:49:37.458Z,9.63
2019-03-23T09:52:05.684Z,9.64
2019-03-23T09:54:33.916Z,9.59
2019-03-23T09:57:02.133Z,9.60
2019-03-23T09:59:30.339Z,9.60
2019-03-23T10:01:58.569Z,9.75
2019-03-23T10:04:28.416Z,9.85
2019-03-23T10:06:56.630Z,9.86
2019-03-23T10:09:24.840Z,9.98
2019-03-23T10:11:53.076Z,10.04
2019-03-23T10:14:21.280Z,10.07
2019-03-23T10:16:49.496Z,10.07
2019-03-23T10:19:17.716Z,10.07
2019-03-23T10:21:45.931Z,10.15
2019-03-23T10:24:14.189Z,10.16
2019-03-23T10:26:42.398Z,10.20
2019-03-23T10:29:11.095Z,10.26
2019-03-23T10:31:39.322Z,10.38
2019-03-23T10:34:07.605Z,10.53
2019-03-23T10:36:35.833Z,10.68
2019-03-23T10:39:04.990Z,10.75
2019-03-23T10:41:33.209Z,10.76
2019-03-23T10:44:01.418Z,10.79
2019-03-23T10:46:30.702Z,10.92
2019-03-23T10:48:58.912Z,10.94
2019-03-23T10:51:27.123Z,11.00
2019-03-23T10:53:55.342Z,10.98
2019-03-23T10:56:23.557Z,11.00
2019-03-23T10:58:51.795Z,11.03
2019-03-23T11:01:19.989Z,11.19
2019-03-23T11:03:48.207Z,11.28
2019-03-23T11:06:16.429Z,11.25
2019-03-23T11:08:44.637Z,11.29
2019-03-23T11:11:12.868Z,11.31
2019-03-23T11:13:41.076Z,11.32
2019-03-23T11:16:09.344Z,11.38
2019-03-23T11:18:37.877Z,11.48
2019-03-23T11:21:06.120Z,11.36
2019-03-23T11:23:34.332Z,11.28
2019-03-23T11:26:02.555Z,11.30
2019-03-23T11:28:30.766Z,11.38
2019-03-23T11:30:59.126Z,11.58
2019-03-23T11:33:27.337Z,11.73
2019-03-23T11:35:57.951Z,11.87
2019-03-23T11:38:25.501Z,11.88
2019-03-23T11:40:55.263Z,12.01
2019-03-23T11:43:23.625Z,12.19
2019-03-23T11:45:51.854Z,12.33
2019-03-23T11:48:20.066Z,12.47
2019-03-23T11:50:48.295Z,12.52
2019-03-23T11:53:16.507Z,12.71
2019-03-23T11:55:44.726Z,12.74
2019-03-23T11:58:13.014Z,12.71
2019-03-23T12:00:41.224Z,12.51
2019-03-23T12:03:09.436Z,12.29
2019-03-23T12:05:37.645Z,12.13
2019-03-23T12:08:05.875Z,12.11
2019-03-23T12:10:34.088Z,12.08
2019-03-23T12:13:02.302Z,12.21
2019-03-23T12:15:30.511Z,12.23
2019-03-23T12:17:58.721Z,12.30
2019-03-23T12:20:26.952Z,12.49
2019-03-23T12:22:55.425Z,12.37
2019-03-23T12:25:23.741Z,12.46
2019-03-23T12:27:51.956Z,12.60
2019-03-23T12:30:20.354Z,12.61
2019-03-23T12:32:48.579Z,12.59
2019-03-23T12:35:16.810Z,12.47
2019-03-23T12:37:45.310Z,12.55
2019-03-23T12:40:13.768Z,12.53
2019-03-23T12:42:41.992Z,12.39
2019-03-23T12:45:10.642Z,12.12
2019-03-23T12:47:38.868Z,11.86
2019-03-23T12:50:10.791Z,11.68
2019-03-23T12:52:39.000Z,11.62
2019-03-23T12:55:08.061Z,11.53
2019-03-23T12:57:36.352Z,11.48
2019-03-23T13:00:15.322Z,11.43
2019-03-23T13:02:43.526Z,11.39
2019-03-23T13:05:11.729Z,11.38
2019-03-23T13:07:40.519Z,11.43
2019-03-23T13:10:11.731Z,11.46
2019-03-23T13:12:41.582Z,11.43
2019-03-23T13:15:14.715Z,11.42
2019-03-23T13:17:42.942Z,11.59
2019-03-23T13:20:11.538Z,11.61
2019-03-23T13:22:39.712Z,11.50
2019-03-23T13:25:09.548Z,11.45
2019-03-23T13:27:37.837Z,11.42
2019-03-23T13:30:08.948Z,11.49
2019-03-23T13:32:37.163Z,11.53
2019-03-23T13:35:05.391Z,11.53
2019-03-23T13:37:33.601Z,11.54
2019-03-23T13:40:01.808Z,11.58
2019-03-23T13:42:30.027Z,11.54
2019-03-23T13:44:58.227Z,11.56
2019-03-23T13:47:26.450Z,11.66
2019-03-23T13:49:54.658Z,11.79
2019-03-23T13:52:23.350Z,11.79
2019-03-23T13:54:51.558Z,11.81
2019-03-23T13:57:19.768Z,11.83
2019-03-23T13:59:47.995Z,11.91
2019-03-23T14:02:16.203Z,12.03
2019-03-23T14:04:44.424Z,12.09
2019-03-23T14:07:12.629Z,12.10
2019-03-23T14:09:40.848Z,12.09
2019-03-23T14:12:09.055Z,12.01
2019-03-23T14:14:37.524Z,11.85
2019-03-23T14:17:05.737Z,11.87
2019-03-23T14:19:33.960Z,12.00
2019-03-23T14:22:02.158Z,12.15
2019-03-23T14:24:30.379Z,12.25
2019-03-23T14:26:58.588Z,12.32
2019-03-23T14:29:26.810Z,12.27
2019-03-23T14:31:55.012Z,12.22
2019-03-23T14:34:23.232Z,12.33
2019-03-23T14:36:51.434Z,12.29
2019-03-23T14:39:19.656Z,12.26
2019-03-23T14:41:47.873Z,12.19
2019-03-23T14:44:16.096Z,12.08
2019-03-23T14:46:44.310Z,12.01
2019-03-23T14:49:12.515Z,12.03
2019-03-23T14:51:40.733Z,11.95
2019-03-23T14:54:08.946Z,11.91
2019-03-23T14:56:37.165Z,11.91
2019-03-23T14:59:05.457Z,11.85
2019-03-23T15:01:33.692Z,11.75
2019-03-23T15:04:01.901Z,11.71
2019-03-23T15:06:30.112Z,11.64
2019-03-23T15:08:58.334Z,11.54
2019-03-23T15:11:26.538Z,11.53
2019-03-23T15:13:54.758Z,11.43
2019-03-23T15:16:22.967Z,11.42
2019-03-23T15:18:51.200Z,11.44
2019-03-23T15:21:19.409Z,11.42
2019-03-23T15:23:47.614Z,11.40
2019-03-23T15:26:16.572Z,11.30
2019-03-23T15:28:44.783Z,11.34
2019-03-23T15:31:14.637Z,11.38
2019-03-23T15:33:42.845Z,11.35
2019-03-23T15:36:11.057Z,11.27
2019-03-23T15:38:39.262Z,11.24
2019-03-23T15:41:07.466Z,11.26
2019-03-23T15:43:35.780Z,11.22
2019-03-23T15:46:03.983Z,11.23
2019-03-23T15:48:32.193Z,11.12
2019-03-23T15:51:00.414Z,11.01
2019-03-23T15:53:28.623Z,10.85
2019-03-23T15:55:56.839Z,10.69
2019-03-23T15:58:25.047Z,10.59
2019-03-23T16:00:53.307Z,10.62
2019-03-23T16:03:21.483Z,10.59
2019-03-23T16:05:49.692Z,10.56
2019-03-23T16:08:17.911Z,10.44
2019-03-23T16:10:46.115Z,10.33
2019-03-23T16:13:14.343Z,10.27
2019-03-23T16:15:42.619Z,10.26
2019-03-23T16:18:10.841Z,10.19
2019-03-23T16:20:39.055Z,10.12
2019-03-23T16:23:07.867Z,10.07
2019-03-23T16:25:36.058Z,10.02
2019-03-23T16:28:04.275Z,9.93
2019-03-23T16:30:32.645Z,9.88
2019-03-23T16:33:00.869Z,9.78
2019-03-23T16:35:29.070Z,9.72
2019-03-23T16:37:57.283Z,9.63
2019-03-23T16:40:25.484Z,9.62
2019-03-23T16:42:53.705Z,9.58
2019-03-23T16:45:21.908Z,9.52
2019-03-23T16:47:51.754Z,9.43
2019-03-23T16:50:19.952Z,9.38
2019-03-23T16:52:48.171Z,9.32
2019-03-23T16:55:16.373Z,9.28
2019-03-23T16:57:44.581Z,9.24
2019-03-23T17:00:14.623Z,9.17
2019-03-23T17:02:42.846Z,9.15
2019-03-23T17:05:11.046Z,9.17
2019-03-23T17:07:39.260Z,9.16
2019-03-23T17:10:07.469Z,9.11
2019-03-23T17:12:35.762Z,9.05
2019-03-23T17:15:06.964Z,9.00
2019-03-23T17:17:35.257Z,8.94
2019-03-23T17:20:03.532Z,8.82
2019-03-23T17:22:31.735Z,8.79
2019-03-23T17:24:59.957Z,8.73
2019-03-23T17:27:28.164Z,8.68
2019-03-23T17:29:56.388Z,8.63
2019-03-23T17:32:24.592Z,8.58
2019-03-23T17:34:52.814Z,8.55
2019-03-23T17:37:21.011Z,8.43
2019-03-23T17:39:49.232Z,8.34
2019-03-23T17:42:17.442Z,8.26
2019-03-23T17:44:46.287Z,8.21
2019-03-23T17:47:14.435Z,8.17
2019-03-23T17:49:42.651Z,8.12
2019-03-23T17:52:10.852Z,8.09
2019-03-23T17:54:39.063Z,8.07
2019-03-23T17:57:07.583Z,7.98
2019-03-23T17:59:35.810Z,7.85
2019-03-23T18:02:05.635Z,7.83
2019-03-23T18:04:33.838Z,7.78
2019-03-23T18:07:02.052Z,7.73
2019-03-23T18:09:30.250Z,7.63
2019-03-23T18:11:58.472Z,7.61
2019-03-23T18:14:26.672Z,7.59
2019-03-23T18:16:54.889Z,7.51
2019-03-23T18:19:23.088Z,7.49
2019-03-23T18:21:51.302Z,7.44
2019-03-23T18:24:19.505Z,7.39
2019-03-23T18:26:47.720Z,7.37
2019-03-23T18:29:15.929Z,7.31
2019-03-23T18:31:44.154Z,7.30
2019-03-23T18:34:12.359Z,7.26
2019-03-23T18:36:40.575Z,7.20
2019-03-23T18:39:10.254Z,7.14
2019-03-23T18:41:38.479Z,7.10
2019-03-23T18:44:15.791Z,7.11
2019-03-23T18:46:36.627Z,7.05
2019-03-23T18:49:04.831Z,6.98
2019-03-23T18:51:33.054Z,6.99
2019-03-23T18:54:01.262Z,6.93
2019-03-23T18:56:29.483Z,6.85
2019-03-23T18:58:57.685Z,6.85
2019-03-23T19:01:27.379Z,6.81
2019-03-23T19:03:55.582Z,6.80
2019-03-23T19:06:23.781Z,6.73
2019-03-23T19:08:52.004Z,6.60
2019-03-23T19:11:20.201Z,6.56
2019-03-23T19:13:48.422Z,6.56
2019-03-23T19:16:16.615Z,6.52
2019-03-23T19:18:44.839Z,6.47
2019-03-23T19:21:13.039Z,6.45
2019-03-23T19:23:41.265Z,6.39
2019-03-23T19:26:09.474Z,6.37
2019-03-23T19:28:37.674Z,6.37
2019-03-23T19:31:05.895Z,6.16
2019-03-23T19:33:34.108Z,6.16
2019-03-23T19:36:02.332Z,6.20
2019-03-23T19:38:30.532Z,6.12
2019-03-23T19:40:58.754Z,6.14
2019-03-23T19:43:26.959Z,6.10
2019-03-23T19:45:55.162Z,6.08
2019-03-23T19:48:24.857Z,6.02
2019-03-23T19:50:53.053Z,5.94
2019-03-23T19:53:21.278Z,5.83
2019-03-23T19:55:49.489Z,5.77
2019-03-23T19:58:17.709Z,5.74
2019-03-23T20:00:45.999Z,5.66
2019-03-23T20:03:14.220Z,5.64
2019-03-23T20:05:42.423Z,5.64
2019-03-23T20:08:11.464Z,5.68
2019-03-23T20:10:39.673Z,5.74
2019-03-23T20:13:07.883Z,5.72
2019-03-23T20:15:36.109Z,5.65
2019-03-23T20:18:04.583Z,5.65
2019-03-23T20:20:32.818Z,5.57
2019-03-23T20:23:01.013Z,5.57
2019-03-23T20:25:29.243Z,5.53
2019-03-23T20:27:57.451Z,5.40
2019-03-23T20:30:25.666Z,5.40
2019-03-23T20:32:53.879Z,5.37
2019-03-23T20:35:22.090Z,5.35
2019-03-23T20:37:50.301Z,5.36
2019-03-23T20:40:18.514Z,5.27
2019-03-23T20:42:46.743Z,5.27
2019-03-23T20:45:18.207Z,5.20
2019-03-23T20:47:46.407Z,5.15
2019-03-23T20:50:14.625Z,5.10
2019-03-23T20:52:45.235Z,5.03
2019-03-23T20:55:24.399Z,4.97
2019-03-23T20:57:53.234Z,4.97
2019-03-23T21:00:21.450Z,4.94
2019-03-23T21:02:49.915Z,4.96
2019-03-23T21:05:18.138Z,4.90
2019-03-23T21:07:46.326Z,4.88
2019-03-23T21:10:14.526Z,4.86
2019-03-23T21:12:42.731Z,4.88
2019-03-23T21:15:10.930Z,4.88
2019-03-23T21:17:50.678Z,4.85
2019-03-23T21:20:09.074Z,4.77
2019-03-23T21:22:37.968Z,4.79
2019-03-23T21:25:07.787Z,4.79
2019-03-23T21:27:35.989Z,4.79
2019-03-23T21:30:07.256Z,4.73
2019-03-23T21:32:35.594Z,4.66
2019-03-23T21:35:04.539Z,4.61
2019-03-23T21:37:32.747Z,4.71
2019-03-23T21:40:00.957Z,4.69
2019-03-23T21:42:29.171Z,4.65
2019-03-23T21:44:57.366Z,4.64
2019-03-23T21:47:25.591Z,4.64
2019-03-23T21:49:53.801Z,4.71
2019-03-23T21:52:22.005Z,4.72
2019-03-23T21:54:50.235Z,4.70
2019-03-23T21:57:18.458Z,4.70
2019-03-23T21:59:46.683Z,4.72
2019-03-23T22:02:14.902Z,4.66
2019-03-23T22:04:43.382Z,4.62
2019-03-23T22:07:11.591Z,4.60
2019-03-23T22:09:39.810Z,4.60
2019-03-23T22:12:08.020Z,4.61
2019-03-23T22:14:41.505Z,4.60
2019-03-23T22:17:06.197Z,4.60
2019-03-23T22:19:34.401Z,4.58
2019-03-23T22:22:02.660Z,4.66
2019-03-23T22:24:30.876Z,4.64
2019-03-23T22:26:59.101Z,4.61
2019-03-23T22:29:27.307Z,4.61
2019-03-23T22:31:55.531Z,4.55
2019-03-23T22:34:23.742Z,4.51
2019-03-23T22:36:52.985Z,4.51
2019-03-23T22:39:21.211Z,4.53
2019-03-23T22:41:49.425Z,4.54
2019-03-23T22:44:17.633Z,4.51
2019-03-23T22:46:45.841Z,4.50
2019-03-23T22:49:14.059Z,4.46
2019-03-23T22:51:42.271Z,4.45
2019-03-23T22:54:10.485Z,4.46
2019-03-23T22:56:38.947Z,4.43
2019-03-23T22:59:07.169Z,4.44
2019-03-23T23:01:37.003Z,4.40
2019-03-23T23:04:05.230Z,4.39
2019-03-23T23:06:33.433Z,4.42
2019-03-23T23:09:01.666Z,4.41
2019-03-23T23:11:29.875Z,4.36
2019-03-23T23:13:59.387Z,4.29
2019-03-23T23:16:27.611Z,4.23
2019-03-23T23:18:55.819Z,4.16
2019-03-23T23:21:25.644Z,4.08
2019-03-23T23:23:53.928Z,4.04
2019-03-23T23:26:22.158Z,3.98
2019-03-23T23:28:50.441Z,4.00
2019-03-23T23:31:18.663Z,4.01
2019-03-23T23:33:47.192Z,4.07
2019-03-23T23:36:15.687Z,4.10
2019-03-23T23:38:44.150Z,4.10
2019-03-23T23:41:12.639Z,4.03
2019-03-23T23:43:41.260Z,3.98
2019-03-23T23:46:09.903Z,3.95
2019-03-23T23:48:38.091Z,3.95
2019-03-23T23:51:06.550Z,3.97
2019-03-23T23:53:34.841Z,3.99
2019-03-23T23:56:03.046Z,3.98
2019-03-23T23:58:31.502Z,3.90
